sensor_id;sensor_type;location;lat;lon;timestamp;pressure;altitude;pressure_sealevel;temperature;humidity
35647;BME280;28680;45.642;13.756;2022-10-16T00:01:28;101725.41;;;17.10;100.00
35647;BME280;28680;45.642;13.756;2022-10-16T00:03:56;101717.75;;;17.17;100.00
35647;BME280;28680;45.642;13.756;2022-10-16T00:06:23;101725.53;;;17.18;100.00
35647;BME280;28680;45.642;13.756;2022-10-16T00:08:50;101718.31;;;17.20;100.00
35647;BME280;28680;45.642;13.756;2022-10-16T00:11:19;101713.69;;;17.22;100.00
35647;BME280;28680;45.642;13.756;2022-10-16T00:13:47;101716.47;;;17.21;100.00
35647;BME280;28680;45.642;13.756;2022-10-16T00:16:14;101712.28;;;17.18;100.00
35647;BME280;28680;45.642;13.756;2022-10-16T00:18:40;101716.63;;;17.19;100.00
35647;BME280;28680;45.642;13.756;2022-10-16T00:21:10;101714.22;;;17.16;100.00
35647;BME280;28680;45.642;13.756;2022-10-16T00:23:36;101720.09;;;17.10;100.00
35647;BME280;28680;45.642;13.756;2022-10-16T00:26:12;101714.53;;;17.13;100.00
35647;BME280;28680;45.642;13.756;2022-10-16T00:28:39;101717.88;;;17.15;100.00
35647;BME280;28680;45.642;13.756;2022-10-16T00:31:10;101717.75;;;17.17;100.00
35647;BME280;28680;45.642;13.756;2022-10-16T00:33:38;101723.88;;;17.17;100.00
35647;BME280;28680;45.642;13.756;2022-10-16T00:36:07;101720.22;;;17.08;100.00
35647;BME280;28680;45.642;13.756;2022-10-16T00:38:35;101723.31;;;17.04;100.00
35647;BME280;28680;45.642;13.756;2022-10-16T00:41:01;101722.06;;;17.08;100.00
35647;BME280;28680;45.642;13.756;2022-10-16T00:43:48;101721.34;;;17.06;100.00
35647;BME280;28680;45.642;13.756;2022-10-16T00:46:22;101733.78;;;17.15;100.00
35647;BME280;28680;45.642;13.756;2022-10-16T00:49:15;101736.72;;;17.02;100.00
35647;BME280;28680;45.642;13.756;2022-10-16T00:51:49;101736.69;;;16.92;100.00
35647;BME280;28680;45.642;13.756;2022-10-16T00:54:30;101731.94;;;16.86;100.00
35647;BME280;28680;45.642;13.756;2022-10-16T00:57:03;101737.25;;;16.86;100.00
35647;BME280;28680;45.642;13.756;2022-10-16T00:59:39;101738.91;;;16.87;100.00
35647;BME280;28680;45.642;13.756;2022-10-16T01:02:09;101746.03;;;16.87;100.00
35647;BME280;28680;45.642;13.756;2022-10-16T01:04:39;101742.13;;;16.91;100.00
35647;BME280;28680;45.642;13.756;2022-10-16T01:13:18;101757.34;;;16.89;100.00
35647;BME280;28680;45.642;13.756;2022-10-16T01:18:47;101758.59;;;16.85;100.00
35647;BME280;28680;45.642;13.756;2022-10-16T01:21:26;101761.38;;;16.83;100.00
35647;BME280;28680;45.642;13.756;2022-10-16T01:24:23;101764.94;;;16.72;100.00
35647;BME280;28680;45.642;13.756;2022-10-16T01:27:21;101762.84;;;16.76;100.00
35647;BME280;28680;45.642;13.756;2022-10-16T01:29:57;101761.47;;;16.82;100.00
35647;BME280;28680;45.642;13.756;2022-10-16T01:33:02;101764.31;;;16.90;100.00
35647;BME280;28680;45.642;13.756;2022-10-16T01:35:57;101763.91;;;16.85;100.00
35647;BME280;28680;45.642;13.756;2022-10-16T01:38:35;101768.09;;;16.87;100.00
35647;BME280;28680;45.642;13.756;2022-10-16T01:41:20;101761.47;;;16.82;100.00
35647;BME280;28680;45.642;13.756;2022-10-16T01:43:57;101762.41;;;16.61;100.00
35647;BME280;28680;45.642;13.756;2022-10-16T01:46:26;101772.00;;;16.52;100.00
35647;BME280;28680;45.642;13.756;2022-10-16T01:48:53;101762.38;;;16.51;100.00
35647;BME280;28680;45.642;13.756;2022-10-16T01:51:19;101778.16;;;16.63;100.00
35647;BME280;28680;45.642;13.756;2022-10-16T01:53:52;101769.78;;;16.57;100.00
35647;BME280;28680;45.642;13.756;2022-10-16T01:56:19;101768.72;;;16.70;100.00
35647;BME280;28680;45.642;13.756;2022-10-16T01:59:03;101776.09;;;16.66;100.00
35647;BME280;28680;45.642;13.756;2022-10-16T02:01:34;101772.97;;;16.51;100.00
35647;BME280;28680;45.642;13.756;2022-10-16T02:04:08;101771.81;;;16.44;100.00
35647;BME280;28680;45.642;13.756;2022-10-16T02:06:34;101782.41;;;16.44;100.00
35647;BME280;28680;45.642;13.756;2022-10-16T02:09:01;101773.78;;;16.52;100.00
35647;BME280;28680;45.642;13.756;2022-10-16T02:11:30;101779.78;;;16.54;100.00
35647;BME280;28680;45.642;13.756;2022-10-16T02:14:06;101781.22;;;16.58;100.00
35647;BME280;28680;45.642;13.756;2022-10-16T02:16:53;101773.31;;;16.68;100.00
35647;BME280;28680;45.642;13.756;2022-10-16T02:19:20;101773.19;;;16.69;100.00
35647;BME280;28680;45.642;13.756;2022-10-16T02:21:57;101769.16;;;16.75;100.00
35647;BME280;28680;45.642;13.756;2022-10-16T02:27:25;101767.06;;;16.79;100.00
35647;BME280;28680;45.642;13.756;2022-10-16T02:37:02;101780.13;;;16.61;100.00
35647;BME280;28680;45.642;13.756;2022-10-16T02:39:30;101778.44;;;16.60;100.00
35647;BME280;28680;45.642;13.756;2022-10-16T02:41:56;101779.69;;;16.65;100.00
35647;BME280;28680;45.642;13.756;2022-10-16T02:44:22;101779.41;;;16.59;100.00
35647;BME280;28680;45.642;13.756;2022-10-16T02:46:48;101780.81;;;16.63;100.00
35647;BME280;28680;45.642;13.756;2022-10-16T02:49:14;101780.56;;;16.66;100.00
35647;BME280;28680;45.642;13.756;2022-10-16T02:52:30;101789.09;;;16.69;100.00
35647;BME280;28680;45.642;13.756;2022-10-16T02:54:56;101782.88;;;16.90;100.00
35647;BME280;28680;45.642;13.756;2022-10-16T02:57:22;101780.94;;;16.92;100.00
35647;BME280;28680;45.642;13.756;2022-10-16T02:59:48;101786.25;;;16.92;100.00
35647;BME280;28680;45.642;13.756;2022-10-16T03:02:13;101782.47;;;16.85;100.00
35647;BME280;28680;45.642;13.756;2022-10-16T03:04:40;101787.16;;;16.81;100.00
35647;BME280;28680;45.642;13.756;2022-10-16T03:07:06;101790.06;;;16.78;100.00
35647;BME280;28680;45.642;13.756;2022-10-16T03:09:32;101788.91;;;16.92;100.00
35647;BME280;28680;45.642;13.756;2022-10-16T03:16:03;101787.94;;;17.03;100.00
35647;BME280;28680;45.642;13.756;2022-10-16T03:18:29;101787.22;;;17.01;100.00
35647;BME280;28680;45.642;13.756;2022-10-16T03:20:55;101788.06;;;17.01;100.00
35647;BME280;28680;45.642;13.756;2022-10-16T03:23:21;101791.69;;;17.00;100.00
35647;BME280;28680;45.642;13.756;2022-10-16T03:25:47;101789.75;;;17.02;100.00
35647;BME280;28680;45.642;13.756;2022-10-16T03:28:39;101785.69;;;16.98;100.00
35647;BME280;28680;45.642;13.756;2022-10-16T03:31:05;101787.75;;;16.85;100.00
35647;BME280;28680;45.642;13.756;2022-10-16T03:33:30;101794.47;;;16.89;100.00
35647;BME280;28680;45.642;13.756;2022-10-16T03:35:56;101789.59;;;16.94;100.00
35647;BME280;28680;45.642;13.756;2022-10-16T03:38:22;101790.44;;;17.04;100.00
35647;BME280;28680;45.642;13.756;2022-10-16T03:40:48;101792.97;;;17.06;100.00
35647;BME280;28680;45.642;13.756;2022-10-16T03:43:14;101787.41;;;17.09;100.00
35647;BME280;28680;45.642;13.756;2022-10-16T03:45:40;101790.75;;;17.11;100.00
35647;BME280;28680;45.642;13.756;2022-10-16T03:48:06;101785.97;;;17.05;100.00
35647;BME280;28680;45.642;13.756;2022-10-16T03:50:32;101781.22;;;16.99;100.00
35647;BME280;28680;45.642;13.756;2022-10-16T03:52:57;101791.13;;;16.97;100.00
35647;BME280;28680;45.642;13.756;2022-10-16T03:55:23;101795.06;;;17.02;100.00
35647;BME280;28680;45.642;13.756;2022-10-16T03:57:49;101795.19;;;17.01;100.00
35647;BME280;28680;45.642;13.756;2022-10-16T04:00:47;101793.78;;;16.97;100.00
35647;BME280;28680;45.642;13.756;2022-10-16T04:03:33;101787.78;;;17.04;100.00
35647;BME280;28680;45.642;13.756;2022-10-16T04:05:59;101781.22;;;16.99;100.00
35647;BME280;28680;45.642;13.756;2022-10-16T04:08:25;101790.69;;;16.91;100.00
35647;BME280;28680;45.642;13.756;2022-10-16T04:10:51;101783.31;;;16.95;100.00
35647;BME280;28680;45.642;13.756;2022-10-16T04:13:17;101782.34;;;16.96;100.00
35647;BME280;28680;45.642;13.756;2022-10-16T04:15:45;101784.13;;;16.95;100.00
35647;BME280;28680;45.642;13.756;2022-10-16T04:18:11;101779.00;;;16.94;100.00
35647;BME280;28680;45.642;13.756;2022-10-16T04:20:37;101787.22;;;16.91;100.00
35647;BME280;28680;45.642;13.756;2022-10-16T04:23:03;101783.59;;;16.92;100.00
35647;BME280;28680;45.642;13.756;2022-10-16T04:25:30;101782.59;;;16.93;100.00
35647;BME280;28680;45.642;13.756;2022-10-16T04:27:56;101781.91;;;16.91;100.00
35647;BME280;28680;45.642;13.756;2022-10-16T04:30:23;101785.69;;;16.88;100.00
35647;BME280;28680;45.642;13.756;2022-10-16T04:32:50;101781.34;;;16.87;100.00
35647;BME280;28680;45.642;13.756;2022-10-16T04:35:20;101780.50;;;16.87;100.00
35647;BME280;28680;45.642;13.756;2022-10-16T04:37:46;101785.34;;;16.82;100.00
35647;BME280;28680;45.642;13.756;2022-10-16T04:40:13;101791.44;;;16.72;100.00
35647;BME280;28680;45.642;13.756;2022-10-16T04:42:39;101792.03;;;16.76;100.00
35647;BME280;28680;45.642;13.756;2022-10-16T04:45:06;101795.78;;;16.73;100.00
35647;BME280;28680;45.642;13.756;2022-10-16T04:47:33;101791.88;;;16.68;100.00
35647;BME280;28680;45.642;13.756;2022-10-16T04:49:59;101793.13;;;16.73;100.00
35647;BME280;28680;45.642;13.756;2022-10-16T04:52:28;101790.75;;;16.70;100.00
35647;BME280;28680;45.642;13.756;2022-10-16T04:54:54;101790.88;;;16.69;100.00
35647;BME280;28680;45.642;13.756;2022-10-16T04:57:21;101788.06;;;16.61;100.00
35647;BME280;28680;45.642;13.756;2022-10-16T04:59:46;101797.97;;;16.59;100.00
35647;BME280;28680;45.642;13.756;2022-10-16T05:02:12;101790.00;;;16.59;100.00
35647;BME280;28680;45.642;13.756;2022-10-16T05:04:38;101788.78;;;16.63;100.00
35647;BME280;28680;45.642;13.756;2022-10-16T05:07:04;101801.31;;;16.61;100.00
35647;BME280;28680;45.642;13.756;2022-10-16T05:09:29;101799.22;;;16.54;100.00
35647;BME280;28680;45.642;13.756;2022-10-16T05:11:55;101797.25;;;16.56;100.00
35647;BME280;28680;45.642;13.756;2022-10-16T05:14:21;101795.31;;;16.59;100.00
35647;BME280;28680;45.642;13.756;2022-10-16T05:16:47;101787.38;;;16.59;100.00
35647;BME280;28680;45.642;13.756;2022-10-16T05:19:13;101794.75;;;16.55;100.00
35647;BME280;28680;45.642;13.756;2022-10-16T05:21:39;101796.44;;;16.56;100.00
35647;BME280;28680;45.642;13.756;2022-10-16T05:27:03;101802.94;;;16.52;100.00
35647;BME280;28680;45.642;13.756;2022-10-16T05:29:32;101802.69;;;16.55;100.00
35647;BME280;28680;45.642;13.756;2022-10-16T05:31:58;101813.22;;;16.35;100.00
35647;BME280;28680;45.642;13.756;2022-10-16T05:34:29;101812.75;;;16.30;100.00
35647;BME280;28680;45.642;13.756;2022-10-16T05:36:55;101825.16;;;16.30;100.00
35647;BME280;28680;45.642;13.756;2022-10-16T05:39:22;101819.09;;;16.39;100.00
35647;BME280;28680;45.642;13.756;2022-10-16T05:41:49;101820.44;;;16.33;100.00
35647;BME280;28680;45.642;13.756;2022-10-16T05:44:16;101818.75;;;16.32;100.00
35647;BME280;28680;45.642;13.756;2022-10-16T05:46:41;101816.00;;;16.34;100.00
35647;BME280;28680;45.642;13.756;2022-10-16T05:49:10;101832.84;;;16.33;100.00
35647;BME280;28680;45.642;13.756;2022-10-16T05:51:36;101821.16;;;16.35;100.00
35647;BME280;28680;45.642;13.756;2022-10-16T05:54:05;101829.28;;;16.44;100.00
35647;BME280;28680;45.642;13.756;2022-10-16T05:56:31;101836.41;;;16.43;100.00
35647;BME280;28680;45.642;13.756;2022-10-16T05:58:57;101834.69;;;16.42;100.00
35647;BME280;28680;45.642;13.756;2022-10-16T06:01:22;101835.56;;;16.43;100.00
35647;BME280;28680;45.642;13.756;2022-10-16T06:03:59;101837.28;;;16.53;100.00
35647;BME280;28680;45.642;13.756;2022-10-16T06:06:27;101833.94;;;16.61;100.00
35647;BME280;28680;45.642;13.756;2022-10-16T06:08:54;101838.59;;;16.69;100.00
35647;BME280;28680;45.642;13.756;2022-10-16T06:11:29;101837.63;;;16.70;100.00
35647;BME280;28680;45.642;13.756;2022-10-16T06:13:59;101841.56;;;16.75;100.00
35647;BME280;28680;45.642;13.756;2022-10-16T06:16:28;101845.38;;;16.83;100.00
35647;BME280;28680;45.642;13.756;2022-10-16T06:18:55;101849.31;;;16.88;100.00
35647;BME280;28680;45.642;13.756;2022-10-16T06:21:24;101854.34;;;16.91;100.00
35647;BME280;28680;45.642;13.756;2022-10-16T06:23:51;101857.28;;;16.98;100.00
35647;BME280;28680;45.642;13.756;2022-10-16T06:26:20;101864.44;;;17.07;100.00
35647;BME280;28680;45.642;13.756;2022-10-16T06:28:47;101867.69;;;17.11;100.00
35647;BME280;28680;45.642;13.756;2022-10-16T06:31:14;101873.97;;;17.20;100.00
35647;BME280;28680;45.642;13.756;2022-10-16T06:33:40;101880.72;;;17.33;100.00
35647;BME280;28680;45.642;13.756;2022-10-16T06:36:15;101886.16;;;17.42;100.00
35647;BME280;28680;45.642;13.756;2022-10-16T06:38:42;101887.00;;;17.42;100.00
35647;BME280;28680;45.642;13.756;2022-10-16T06:41:13;101891.34;;;17.43;100.00
35647;BME280;28680;45.642;13.756;2022-10-16T06:43:40;101883.09;;;17.46;100.00
35647;BME280;28680;45.642;13.756;2022-10-16T06:46:07;101894.72;;;17.55;100.00
35647;BME280;28680;45.642;13.756;2022-10-16T06:48:35;101884.78;;;17.67;100.00
35647;BME280;28680;45.642;13.756;2022-10-16T06:51:10;101889.41;;;17.74;100.00
35647;BME280;28680;45.642;13.756;2022-10-16T06:53:41;101895.72;;;17.83;100.00
35647;BME280;28680;45.642;13.756;2022-10-16T06:56:16;101892.91;;;17.75;100.00
35647;BME280;28680;45.642;13.756;2022-10-16T06:58:43;101895.84;;;17.82;100.00
35647;BME280;28680;45.642;13.756;2022-10-16T07:01:10;101908.59;;;17.88;100.00
35647;BME280;28680;45.642;13.756;2022-10-16T07:03:39;101911.81;;;17.91;100.00
35647;BME280;28680;45.642;13.756;2022-10-16T07:06:08;101917.81;;;18.03;100.00
35647;BME280;28680;45.642;13.756;2022-10-16T07:08:38;101927.47;;;18.14;100.00
35647;BME280;28680;45.642;13.756;2022-10-16T07:11:07;101928.56;;;18.21;100.00
35647;BME280;28680;45.642;13.756;2022-10-16T07:13:35;101931.78;;;18.35;100.00
35647;BME280;28680;45.642;13.756;2022-10-16T07:16:07;101922.94;;;18.44;100.00
35647;BME280;28680;45.642;13.756;2022-10-16T07:18:33;101931.47;;;18.47;100.00
35647;BME280;28680;45.642;13.756;2022-10-16T07:21:11;101924.31;;;18.58;100.00
35647;BME280;28680;45.642;13.756;2022-10-16T07:23:37;101935.34;;;18.63;100.00
35647;BME280;28680;45.642;13.756;2022-10-16T07:26:04;101933.22;;;18.86;100.00
35647;BME280;28680;45.642;13.756;2022-10-16T07:28:32;101934.22;;;19.13;100.00
35647;BME280;28680;45.642;13.756;2022-10-16T07:31:11;101933.97;;;19.34;100.00
35647;BME280;28680;45.642;13.756;2022-10-16T07:33:40;101932.34;;;19.51;100.00
35647;BME280;28680;45.642;13.756;2022-10-16T07:36:07;101939.81;;;19.65;100.00
35647;BME280;28680;45.642;13.756;2022-10-16T07:38:33;101935.00;;;19.78;100.00
35647;BME280;28680;45.642;13.756;2022-10-16T07:41:07;101938.25;;;19.90;100.00
35647;BME280;28680;45.642;13.756;2022-10-16T07:43:34;101946.09;;;20.10;100.00
35647;BME280;28680;45.642;13.756;2022-10-16T07:46:00;101951.56;;;20.26;100.00
35647;BME280;28680;45.642;13.756;2022-10-16T07:48:29;101951.47;;;20.36;100.00
35647;BME280;28680;45.642;13.756;2022-10-16T07:51:00;101953.81;;;20.39;100.00
35647;BME280;28680;45.642;13.756;2022-10-16T07:53:27;101958.75;;;20.52;100.00
35647;BME280;28680;45.642;13.756;2022-10-16T07:56:03;101955.94;;;20.53;100.00
35647;BME280;28680;45.642;13.756;2022-10-16T07:58:31;101961.81;;;20.57;100.00
35647;BME280;28680;45.642;13.756;2022-10-16T08:00:57;101958.69;;;20.61;100.00
35647;BME280;28680;45.642;13.756;2022-10-16T08:03:25;101953.91;;;20.73;100.00
35647;BME280;28680;45.642;13.756;2022-10-16T08:05:51;101949.31;;;20.83;100.00
35647;BME280;28680;45.642;13.756;2022-10-16T08:08:18;101953.06;;;20.99;100.00
35647;BME280;28680;45.642;13.756;2022-10-16T08:10:44;101960.28;;;21.07;100.00
35647;BME280;28680;45.642;13.756;2022-10-16T08:13:10;101958.31;;;21.17;100.00
35647;BME280;28680;45.642;13.756;2022-10-16T08:15:39;101959.84;;;21.28;100.00
35647;BME280;28680;45.642;13.756;2022-10-16T08:18:05;101968.09;;;21.42;100.00
35647;BME280;28680;45.642;13.756;2022-10-16T08:21:19;101967.66;;;21.55;100.00
35647;BME280;28680;45.642;13.756;2022-10-16T08:29:18;101972.28;;;22.04;100.00
35647;BME280;28680;45.642;13.756;2022-10-16T08:31:44;101980.28;;;22.20;100.00
35647;BME280;28680;45.642;13.756;2022-10-16T08:34:09;101976.97;;;22.35;100.00
35647;BME280;28680;45.642;13.756;2022-10-16T08:37:00;101975.97;;;22.52;100.00
35647;BME280;28680;45.642;13.756;2022-10-16T08:39:49;101978.44;;;22.62;100.00
35647;BME280;28680;45.642;13.756;2022-10-16T08:48:57;101974.19;;;23.01;100.00
35647;BME280;28680;45.642;13.756;2022-10-16T08:51:31;101979.22;;;23.12;100.00
35647;BME280;28680;45.642;13.756;2022-10-16T08:54:32;101980.81;;;23.29;100.00
35647;BME280;28680;45.642;13.756;2022-10-16T08:57:21;101977.09;;;23.39;100.00
35647;BME280;28680;45.642;13.756;2022-10-16T08:59:47;101975.84;;;23.49;100.00
35647;BME280;28680;45.642;13.756;2022-10-16T09:02:40;101981.50;;;23.54;100.00
35647;BME280;28680;45.642;13.756;2022-10-16T09:11:55;101996.50;;;23.41;100.00
35647;BME280;28680;45.642;13.756;2022-10-16T09:17:49;102007.97;;;23.10;100.00
35647;BME280;28680;45.642;13.756;2022-10-16T09:20:53;102016.50;;;23.13;100.00
35647;BME280;28680;45.642;13.756;2022-10-16T09:23:28;102006.19;;;23.42;100.00
35647;BME280;28680;45.642;13.756;2022-10-16T09:33:36;102008.00;;;23.49;100.00
35647;BME280;28680;45.642;13.756;2022-10-16T09:46:36;102022.88;;;24.38;100.00
35647;BME280;28680;45.642;13.756;2022-10-16T09:49:25;102018.22;;;24.55;100.00
35647;BME280;28680;45.642;13.756;2022-10-16T09:52:02;102018.06;;;24.33;100.00
35647;BME280;28680;45.642;13.756;2022-10-16T09:54:37;102026.81;;;24.27;100.00
35647;BME280;28680;45.642;13.756;2022-10-16T11:15:37;101978.19;;;26.78;100.00
35647;BME280;28680;45.642;13.756;2022-10-16T11:34:42;101973.06;;;27.25;100.00
35647;BME280;28680;45.642;13.756;2022-10-16T11:37:21;101977.59;;;27.25;100.00
35647;BME280;28680;45.642;13.756;2022-10-16T11:46:43;101963.88;;;27.88;100.00
35647;BME280;28680;45.642;13.756;2022-10-16T11:49:22;101976.09;;;27.70;100.00
35647;BME280;28680;45.642;13.756;2022-10-16T11:52:15;101968.66;;;27.66;100.00
35647;BME280;28680;45.642;13.756;2022-10-16T12:01:48;101956.84;;;27.87;100.00
35647;BME280;28680;45.642;13.756;2022-10-16T12:05:03;101955.22;;;28.06;100.00
35647;BME280;28680;45.642;13.756;2022-10-16T12:07:47;101962.88;;;28.09;100.00
35647;BME280;28680;45.642;13.756;2022-10-16T12:10:27;101956.03;;;27.99;100.00
35647;BME280;28680;45.642;13.756;2022-10-16T12:12:53;101952.94;;;27.96;100.00
35647;BME280;28680;45.642;13.756;2022-10-16T12:15:27;101953.75;;;27.90;100.00
35647;BME280;28680;45.642;13.756;2022-10-16T12:18:01;101956.44;;;28.03;100.00
35647;BME280;28680;45.642;13.756;2022-10-16T12:20:32;101956.25;;;28.11;100.00
35647;BME280;28680;45.642;13.756;2022-10-16T12:23:04;101960.19;;;28.29;100.00
35647;BME280;28680;45.642;13.756;2022-10-16T12:25:36;101959.78;;;28.45;100.00
35647;BME280;28680;45.642;13.756;2022-10-16T12:28:19;101954.38;;;28.45;100.00
35647;BME280;28680;45.642;13.756;2022-10-16T12:34:42;101965.59;;;28.49;100.00
35647;BME280;28680;45.642;13.756;2022-10-16T12:37:37;101963.50;;;28.44;100.00
35647;BME280;28680;45.642;13.756;2022-10-16T12:42:47;101971.41;;;28.32;100.00
35647;BME280;28680;45.642;13.756;2022-10-16T12:45:30;101967.03;;;28.51;100.00
35647;BME280;28680;45.642;13.756;2022-10-16T12:47:59;101966.41;;;28.29;100.00
35647;BME280;28680;45.642;13.756;2022-10-16T12:50:35;101968.91;;;28.24;100.00
35647;BME280;28680;45.642;13.756;2022-10-16T12:53:04;101973.06;;;28.20;100.00
35647;BME280;28680;45.642;13.756;2022-10-16T12:56:48;101969.72;;;28.51;100.00
35647;BME280;28680;45.642;13.756;2022-10-16T13:55:38;101985.53;;;27.94;100.00
35647;BME280;28680;45.642;13.756;2022-10-16T13:58:12;101997.97;;;28.09;100.00
35647;BME280;28680;45.642;13.756;2022-10-16T14:00:38;101997.56;;;28.45;100.00
35647;BME280;28680;45.642;13.756;2022-10-16T14:03:13;101996.50;;;28.80;100.00
35647;BME280;28680;45.642;13.756;2022-10-16T14:06:06;101994.44;;;28.82;100.00
35647;BME280;28680;45.642;13.756;2022-10-16T14:08:44;101996.72;;;28.71;100.00
35647;BME280;28680;45.642;13.756;2022-10-16T14:11:11;101999.69;;;28.56;100.00
35647;BME280;28680;45.642;13.756;2022-10-16T14:13:43;101993.19;;;28.77;100.00
35647;BME280;28680;45.642;13.756;2022-10-16T14:16:18;101992.38;;;28.70;100.00
35647;BME280;28680;45.642;13.756;2022-10-16T14:19:03;101997.59;;;28.58;100.00
35647;BME280;28680;45.642;13.756;2022-10-16T14:21:32;101996.31;;;28.54;100.00
35647;BME280;28680;45.642;13.756;2022-10-16T14:24:22;101993.63;;;28.68;100.00
35647;BME280;28680;45.642;13.756;2022-10-16T14:26:50;102001.94;;;28.39;100.00
35647;BME280;28680;45.642;13.756;2022-10-16T14:29:20;101994.44;;;28.35;100.00
35647;BME280;28680;45.642;13.756;2022-10-16T14:32:06;101995.06;;;28.10;100.00
35647;BME280;28680;45.642;13.756;2022-10-16T14:34:53;101994.16;;;27.70;100.00
35647;BME280;28680;45.642;13.756;2022-10-16T14:37:25;102001.22;;;27.22;100.00
35647;BME280;28680;45.642;13.756;2022-10-16T14:39:53;102001.13;;;27.37;100.00
35647;BME280;28680;45.642;13.756;2022-10-16T14:42:21;102002.91;;;26.89;100.00
35647;BME280;28680;45.642;13.756;2022-10-16T14:44:52;101999.84;;;26.63;100.00
35647;BME280;28680;45.642;13.756;2022-10-16T14:47:22;102000.28;;;26.67;100.00
35647;BME280;28680;45.642;13.756;2022-10-16T14:49:51;101996.41;;;27.11;100.00
35647;BME280;28680;45.642;13.756;2022-10-16T14:52:18;102002.50;;;26.92;100.00
35647;BME280;28680;45.642;13.756;2022-10-16T14:54:48;101995.78;;;26.74;100.00
35647;BME280;28680;45.642;13.756;2022-10-16T14:57:23;102000.88;;;26.62;100.00
35647;BME280;28680;45.642;13.756;2022-10-16T14:59:49;102001.66;;;26.84;100.00
35647;BME280;28680;45.642;13.756;2022-10-16T15:08:53;101995.25;;;26.14;100.00
35647;BME280;28680;45.642;13.756;2022-10-16T15:26:28;102011.63;;;25.25;100.00
35647;BME280;28680;45.642;13.756;2022-10-16T15:28:55;102021.22;;;24.89;100.00
35647;BME280;28680;45.642;13.756;2022-10-16T15:31:21;102026.16;;;24.86;100.00
35647;BME280;28680;45.642;13.756;2022-10-16T15:33:51;102026.50;;;24.45;100.00
35647;BME280;28680;45.642;13.756;2022-10-16T15:36:29;102029.66;;;24.48;100.00
35647;BME280;28680;45.642;13.756;2022-10-16T15:38:56;102029.44;;;24.35;100.00
35647;BME280;28680;45.642;13.756;2022-10-16T15:41:22;102034.75;;;24.20;100.00
35647;BME280;28680;45.642;13.756;2022-10-16T15:43:49;102024.38;;;23.94;100.00
35647;BME280;28680;45.642;13.756;2022-10-16T15:46:30;102025.44;;;23.77;100.00
35647;BME280;28680;45.642;13.756;2022-10-16T15:48:58;102024.22;;;23.87;100.00
35647;BME280;28680;45.642;13.756;2022-10-16T15:51:25;102030.06;;;23.60;100.00
35647;BME280;28680;45.642;13.756;2022-10-16T15:53:53;102034.75;;;23.58;100.00
35647;BME280;28680;45.642;13.756;2022-10-16T15:56:22;102037.19;;;23.36;100.00
35647;BME280;28680;45.642;13.756;2022-10-16T15:58:52;102031.81;;;23.75;100.00
35647;BME280;28680;45.642;13.756;2022-10-16T16:01:19;102039.47;;;23.55;100.00
35647;BME280;28680;45.642;13.756;2022-10-16T16:03:45;102034.09;;;23.55;100.00
35647;BME280;28680;45.642;13.756;2022-10-16T16:06:13;102043.84;;;23.40;100.00
35647;BME280;28680;45.642;13.756;2022-10-16T16:08:39;102050.28;;;23.31;100.00
35647;BME280;28680;45.642;13.756;2022-10-16T16:11:17;102034.00;;;23.72;100.00
35647;BME280;28680;45.642;13.756;2022-10-16T16:14:03;102047.22;;;23.42;100.00
35647;BME280;28680;45.642;13.756;2022-10-16T16:16:29;102053.81;;;23.23;100.00
35647;BME280;28680;45.642;13.756;2022-10-16T16:33:18;102062.22;;;23.12;100.00
35647;BME280;28680;45.642;13.756;2022-10-16T16:51:29;102078.78;;;22.42;100.00
35647;BME280;28680;45.642;13.756;2022-10-16T16:53:55;102088.16;;;22.46;100.00
35647;BME280;28680;45.642;13.756;2022-10-16T17:04:11;102097.25;;;22.10;100.00
35647;BME280;28680;45.642;13.756;2022-10-16T17:10:54;102111.25;;;21.96;100.00
35647;BME280;28680;45.642;13.756;2022-10-16T17:13:30;102119.19;;;21.79;100.00
35647;BME280;28680;45.642;13.756;2022-10-16T17:35:38;102158.09;;;21.03;100.00
35647;BME280;28680;45.642;13.756;2022-10-16T17:38:07;102156.34;;;21.12;100.00
35647;BME280;28680;45.642;13.756;2022-10-16T17:41:40;102155.25;;;21.23;100.00
35647;BME280;28680;45.642;13.756;2022-10-16T17:44:06;102164.34;;;20.94;100.00
35647;BME280;28680;45.642;13.756;2022-10-16T17:50:25;102169.25;;;20.81;100.00
35647;BME280;28680;45.642;13.756;2022-10-16T18:05:46;102182.31;;;20.56;100.00
35647;BME280;28680;45.642;13.756;2022-10-16T18:40:23;102211.75;;;20.19;100.00
35647;BME280;28680;45.642;13.756;2022-10-16T19:42:33;102254.53;;;19.31;100.00
35647;BME280;28680;45.642;13.756;2022-10-16T20:01:00;102261.25;;;19.16;100.00
35647;BME280;28680;45.642;13.756;2022-10-16T20:07:46;102266.84;;;19.03;100.00
35647;BME280;28680;45.642;13.756;2022-10-16T20:10:18;102272.72;;;18.97;100.00
35647;BME280;28680;45.642;13.756;2022-10-16T20:12:44;102277.63;;;19.01;100.00
35647;BME280;28680;45.642;13.756;2022-10-16T20:15:12;102282.94;;;19.01;100.00
35647;BME280;28680;45.642;13.756;2022-10-16T20:17:38;102278.50;;;19.02;100.00
35647;BME280;28680;45.642;13.756;2022-10-16T20:20:09;102276.78;;;18.91;100.00
35647;BME280;28680;45.642;13.756;2022-10-16T20:22:44;102285.91;;;18.88;100.00
35647;BME280;28680;45.642;13.756;2022-10-16T20:25:10;102288.41;;;18.90;100.00